sensor_id;sensor_type;location;lat;lon;timestamp;temperature;humidity
55331;DHT22;58851;42.984;20.336;2023-11-21T00:00:05;128.50;6502.40
55331;DHT22;58851;42.984;20.336;2023-11-21T00:02:38;128.40;6502.40
55331;DHT22;58851;42.984;20.336;2023-11-21T00:05:07;128.30;6502.40
55331;DHT22;58851;42.984;20.336;2023-11-21T00:07:34;128.30;6502.40
55331;DHT22;58851;42.984;20.336;2023-11-21T00:10:00;128.40;6502.40
55331;DHT22;58851;42.984;20.336;2023-11-21T00:12:26;128.40;6502.40
55331;DHT22;58851;42.984;20.336;2023-11-21T00:14:51;128.40;6502.40
55331;DHT22;58851;42.984;20.336;2023-11-21T00:17:18;128.50;6502.40
55331;DHT22;58851;42.984;20.336;2023-11-21T00:19:45;128.50;6502.40
55331;DHT22;58851;42.984;20.336;2023-11-21T00:22:10;128.50;6502.40
55331;DHT22;58851;42.984;20.336;2023-11-21T00:24:37;128.50;6502.40
55331;DHT22;58851;42.984;20.336;2023-11-21T00:27:03;128.50;6502.40
55331;DHT22;58851;42.984;20.336;2023-11-21T00:29:30;128.50;6502.40
55331;DHT22;58851;42.984;20.336;2023-11-21T00:31:56;128.50;6502.40
55331;DHT22;58851;42.984;20.336;2023-11-21T00:34:22;128.50;6502.40
55331;DHT22;58851;42.984;20.336;2023-11-21T00:36:48;128.60;6502.40
55331;DHT22;58851;42.984;20.336;2023-11-21T00:39:14;128.60;6502.40
55331;DHT22;58851;42.984;20.336;2023-11-21T00:41:40;128.60;6502.40
55331;DHT22;58851;42.984;20.336;2023-11-21T00:44:05;128.70;6502.40
55331;DHT22;58851;42.984;20.336;2023-11-21T00:46:32;128.70;6502.40
55331;DHT22;58851;42.984;20.336;2023-11-21T00:48:59;128.70;6502.40
55331;DHT22;58851;42.984;20.336;2023-11-21T00:51:25;128.70;6502.40
55331;DHT22;58851;42.984;20.336;2023-11-21T00:53:50;128.70;6502.40
55331;DHT22;58851;42.984;20.336;2023-11-21T00:56:16;128.60;6502.40
55331;DHT22;58851;42.984;20.336;2023-11-21T00:58:42;128.60;6502.40
55331;DHT22;58851;42.984;20.336;2023-11-21T01:01:12;128.60;6502.40
55331;DHT22;58851;42.984;20.336;2023-11-21T01:03:37;128.60;6502.40
55331;DHT22;58851;42.984;20.336;2023-11-21T01:06:04;128.60;6502.40
55331;DHT22;58851;42.984;20.336;2023-11-21T01:08:33;128.50;6502.40
55331;DHT22;58851;42.984;20.336;2023-11-21T01:10:59;128.50;6502.40
55331;DHT22;58851;42.984;20.336;2023-11-21T01:13:25;128.50;6502.40
55331;DHT22;58851;42.984;20.336;2023-11-21T01:15:55;128.50;6502.40
55331;DHT22;58851;42.984;20.336;2023-11-21T01:18:21;128.50;6502.40
55331;DHT22;58851;42.984;20.336;2023-11-21T01:20:46;128.40;6502.40
55331;DHT22;58851;42.984;20.336;2023-11-21T01:23:13;128.30;6502.40
55331;DHT22;58851;42.984;20.336;2023-11-21T01:25:39;128.30;6502.40
55331;DHT22;58851;42.984;20.336;2023-11-21T01:28:05;128.30;6502.40
55331;DHT22;58851;42.984;20.336;2023-11-21T01:30:31;128.30;6502.40
55331;DHT22;58851;42.984;20.336;2023-11-21T01:32:58;128.10;6502.40
55331;DHT22;58851;42.984;20.336;2023-11-21T01:35:24;128.10;6502.40
55331;DHT22;58851;42.984;20.336;2023-11-21T01:37:50;128.00;6502.40
55331;DHT22;58851;42.984;20.336;2023-11-21T01:40:16;128.00;6502.40
55331;DHT22;58851;42.984;20.336;2023-11-21T01:42:42;128.10;6502.40
55331;DHT22;58851;42.984;20.336;2023-11-21T01:45:13;128.10;6502.40
55331;DHT22;58851;42.984;20.336;2023-11-21T01:47:41;128.10;6502.40
55331;DHT22;58851;42.984;20.336;2023-11-21T01:50:14;128.10;6502.40
55331;DHT22;58851;42.984;20.336;2023-11-21T01:52:46;128.10;6502.40
55331;DHT22;58851;42.984;20.336;2023-11-21T01:55:15;128.10;6502.40
55331;DHT22;58851;42.984;20.336;2023-11-21T01:57:43;128.10;6502.40
55331;DHT22;58851;42.984;20.336;2023-11-21T02:00:10;128.10;6502.40
55331;DHT22;58851;42.984;20.336;2023-11-21T02:02:48;128.00;6502.40
55331;DHT22;58851;42.984;20.336;2023-11-21T02:05:18;128.00;6502.40
55331;DHT22;58851;42.984;20.336;2023-11-21T02:07:45;128.00;6502.40
55331;DHT22;58851;42.984;20.336;2023-11-21T02:10:16;128.00;6502.40
55331;DHT22;58851;42.984;20.336;2023-11-21T02:12:42;103.30;6476.80
55331;DHT22;58851;42.984;20.336;2023-11-21T02:15:09;103.20;6476.80
55331;DHT22;58851;42.984;20.336;2023-11-21T02:17:42;103.20;6476.80
55331;DHT22;58851;42.984;20.336;2023-11-21T02:20:12;103.20;6476.80
55331;DHT22;58851;42.984;20.336;2023-11-21T02:22:41;103.20;6476.80
55331;DHT22;58851;42.984;20.336;2023-11-21T02:25:08;103.20;6476.80
55331;DHT22;58851;42.984;20.336;2023-11-21T02:27:34;103.10;6476.80
55331;DHT22;58851;42.984;20.336;2023-11-21T02:30:00;103.10;6476.80
55331;DHT22;58851;42.984;20.336;2023-11-21T02:32:26;103.10;6476.80
55331;DHT22;58851;42.984;20.336;2023-11-21T02:34:52;103.10;6476.80
55331;DHT22;58851;42.984;20.336;2023-11-21T02:37:21;103.10;6476.80
55331;DHT22;58851;42.984;20.336;2023-11-21T02:39:47;103.00;6476.80
55331;DHT22;58851;42.984;20.336;2023-11-21T02:42:13;103.00;6476.80
55331;DHT22;58851;42.984;20.336;2023-11-21T02:44:38;102.90;6476.80
55331;DHT22;58851;42.984;20.336;2023-11-21T02:47:04;102.90;6476.80
55331;DHT22;58851;42.984;20.336;2023-11-21T02:49:30;102.90;6476.80
55331;DHT22;58851;42.984;20.336;2023-11-21T02:51:56;102.90;6476.80
55331;DHT22;58851;42.984;20.336;2023-11-21T02:54:22;102.90;6476.80
55331;DHT22;58851;42.984;20.336;2023-11-21T02:56:48;102.80;6476.80
55331;DHT22;58851;42.984;20.336;2023-11-21T02:59:15;102.80;6476.80
55331;DHT22;58851;42.984;20.336;2023-11-21T03:01:42;102.80;6476.80
55331;DHT22;58851;42.984;20.336;2023-11-21T03:04:08;102.80;6476.80
55331;DHT22;58851;42.984;20.336;2023-11-21T03:06:34;102.70;6476.80
55331;DHT22;58851;42.984;20.336;2023-11-21T03:09:00;102.80;6476.80
55331;DHT22;58851;42.984;20.336;2023-11-21T03:11:26;102.70;6476.80
55331;DHT22;58851;42.984;20.336;2023-11-21T03:13:51;102.70;6476.80
55331;DHT22;58851;42.984;20.336;2023-11-21T03:16:19;102.80;6476.80
55331;DHT22;58851;42.984;20.336;2023-11-21T03:18:44;102.70;6476.80
55331;DHT22;58851;42.984;20.336;2023-11-21T03:21:10;102.70;6476.80
55331;DHT22;58851;42.984;20.336;2023-11-21T03:23:36;102.70;6476.80
55331;DHT22;58851;42.984;20.336;2023-11-21T03:26:03;102.70;6476.80
55331;DHT22;58851;42.984;20.336;2023-11-21T03:28:29;102.60;6476.80
55331;DHT22;58851;42.984;20.336;2023-11-21T03:30:58;102.70;6476.80
55331;DHT22;58851;42.984;20.336;2023-11-21T03:33:24;102.60;6476.80
55331;DHT22;58851;42.984;20.336;2023-11-21T03:35:49;102.50;6476.80
55331;DHT22;58851;42.984;20.336;2023-11-21T03:38:15;102.50;6476.80
55331;DHT22;58851;42.984;20.336;2023-11-21T03:40:42;102.50;6476.80
55331;DHT22;58851;42.984;20.336;2023-11-21T03:43:07;102.50;6476.80
55331;DHT22;58851;42.984;20.336;2023-11-21T03:45:33;102.50;6476.80
55331;DHT22;58851;42.984;20.336;2023-11-21T03:47:59;102.50;6476.80
55331;DHT22;58851;42.984;20.336;2023-11-21T03:50:30;102.50;6476.80
55331;DHT22;58851;42.984;20.336;2023-11-21T03:52:57;102.50;6476.80
55331;DHT22;58851;42.984;20.336;2023-11-21T03:55:23;102.60;6476.80
55331;DHT22;58851;42.984;20.336;2023-11-21T03:57:52;102.60;6476.80
55331;DHT22;58851;42.984;20.336;2023-11-21T04:00:18;102.60;6476.80
55331;DHT22;58851;42.984;20.336;2023-11-21T04:02:45;102.60;6476.80
55331;DHT22;58851;42.984;20.336;2023-11-21T04:05:11;102.70;6476.80
55331;DHT22;58851;42.984;20.336;2023-11-21T04:07:37;102.70;6476.80
55331;DHT22;58851;42.984;20.336;2023-11-21T04:10:07;102.70;6476.80
55331;DHT22;58851;42.984;20.336;2023-11-21T04:12:38;102.70;6476.80
55331;DHT22;58851;42.984;20.336;2023-11-21T04:15:04;102.70;6476.80
55331;DHT22;58851;42.984;20.336;2023-11-21T04:17:30;102.70;6476.80
55331;DHT22;58851;42.984;20.336;2023-11-21T04:19:56;102.80;6476.80
55331;DHT22;58851;42.984;20.336;2023-11-21T04:22:22;102.80;6476.80
55331;DHT22;58851;42.984;20.336;2023-11-21T04:24:47;102.80;6476.80
55331;DHT22;58851;42.984;20.336;2023-11-21T04:27:14;102.90;6476.80
55331;DHT22;58851;42.984;20.336;2023-11-21T04:29:40;102.90;6476.80
55331;DHT22;58851;42.984;20.336;2023-11-21T04:32:07;102.90;6476.80
55331;DHT22;58851;42.984;20.336;2023-11-21T04:34:33;102.90;6476.80
55331;DHT22;58851;42.984;20.336;2023-11-21T04:37:00;103.00;6476.80
55331;DHT22;58851;42.984;20.336;2023-11-21T04:39:26;103.00;6476.80
55331;DHT22;58851;42.984;20.336;2023-11-21T04:41:52;103.10;6476.80
55331;DHT22;58851;42.984;20.336;2023-11-21T04:44:18;103.10;6476.80
55331;DHT22;58851;42.984;20.336;2023-11-21T04:46:43;103.20;6476.80
55331;DHT22;58851;42.984;20.336;2023-11-21T04:49:09;103.20;6476.80
55331;DHT22;58851;42.984;20.336;2023-11-21T04:51:36;103.20;6476.80
55331;DHT22;58851;42.984;20.336;2023-11-21T04:54:02;103.20;6476.80
55331;DHT22;58851;42.984;20.336;2023-11-21T04:56:28;103.30;6476.80
55331;DHT22;58851;42.984;20.336;2023-11-21T04:58:54;128.00;6502.40
55331;DHT22;58851;42.984;20.336;2023-11-21T05:01:20;128.00;6502.40
55331;DHT22;58851;42.984;20.336;2023-11-21T05:03:46;128.00;6502.40
55331;DHT22;58851;42.984;20.336;2023-11-21T05:06:12;128.00;6502.40
55331;DHT22;58851;42.984;20.336;2023-11-21T05:08:39;128.00;6502.40
55331;DHT22;58851;42.984;20.336;2023-11-21T05:11:05;128.00;6502.40
55331;DHT22;58851;42.984;20.336;2023-11-21T05:13:34;103.30;6476.80
55331;DHT22;58851;42.984;20.336;2023-11-21T05:16:00;103.20;6476.80
55331;DHT22;58851;42.984;20.336;2023-11-21T05:18:29;103.20;6476.80
55331;DHT22;58851;42.984;20.336;2023-11-21T05:20:55;103.00;6476.80
55331;DHT22;58851;42.984;20.336;2023-11-21T05:23:21;102.90;6476.80
55331;DHT22;58851;42.984;20.336;2023-11-21T05:25:47;102.90;6476.80
55331;DHT22;58851;42.984;20.336;2023-11-21T05:28:13;102.80;6476.80
55331;DHT22;58851;42.984;20.336;2023-11-21T05:30:39;103.00;6476.80
55331;DHT22;58851;42.984;20.336;2023-11-21T05:33:08;103.20;6476.80
55331;DHT22;58851;42.984;20.336;2023-11-21T05:35:35;103.20;6476.80
55331;DHT22;58851;42.984;20.336;2023-11-21T05:38:01;128.00;6502.40
55331;DHT22;58851;42.984;20.336;2023-11-21T05:40:27;128.00;6502.40
55331;DHT22;58851;42.984;20.336;2023-11-21T05:42:56;128.00;6502.40
55331;DHT22;58851;42.984;20.336;2023-11-21T05:45:23;128.00;6502.40
55331;DHT22;58851;42.984;20.336;2023-11-21T05:47:49;128.10;6502.40
55331;DHT22;58851;42.984;20.336;2023-11-21T05:50:17;128.10;6502.40
55331;DHT22;58851;42.984;20.336;2023-11-21T05:52:45;128.10;6502.40
55331;DHT22;58851;42.984;20.336;2023-11-21T05:55:11;128.20;6502.40
55331;DHT22;58851;42.984;20.336;2023-11-21T05:57:38;128.30;6502.40
55331;DHT22;58851;42.984;20.336;2023-11-21T06:00:05;128.30;6502.40
55331;DHT22;58851;42.984;20.336;2023-11-21T06:02:41;128.40;6502.40
55331;DHT22;58851;42.984;20.336;2023-11-21T06:05:08;128.40;6502.40
55331;DHT22;58851;42.984;20.336;2023-11-21T06:07:34;128.50;6502.40
55331;DHT22;58851;42.984;20.336;2023-11-21T06:10:02;128.50;6502.40
55331;DHT22;58851;42.984;20.336;2023-11-21T06:12:31;128.50;6502.40
55331;DHT22;58851;42.984;20.336;2023-11-21T06:15:02;128.60;6502.40
55331;DHT22;58851;42.984;20.336;2023-11-21T06:17:31;128.60;6502.40
55331;DHT22;58851;42.984;20.336;2023-11-21T06:19:58;128.60;6502.40
55331;DHT22;58851;42.984;20.336;2023-11-21T06:22:27;128.60;6502.40
55331;DHT22;58851;42.984;20.336;2023-11-21T06:24:53;128.70;6502.40
55331;DHT22;58851;42.984;20.336;2023-11-21T06:27:19;128.70;6502.40
55331;DHT22;58851;42.984;20.336;2023-11-21T06:29:45;128.70;6502.40
55331;DHT22;58851;42.984;20.336;2023-11-21T06:32:11;128.70;6502.40
55331;DHT22;58851;42.984;20.336;2023-11-21T06:34:37;128.80;6502.40
55331;DHT22;58851;42.984;20.336;2023-11-21T06:37:03;128.80;6502.40
55331;DHT22;58851;42.984;20.336;2023-11-21T06:39:29;128.80;6502.40
55331;DHT22;58851;42.984;20.336;2023-11-21T06:41:55;128.80;6502.40
55331;DHT22;58851;42.984;20.336;2023-11-21T06:44:21;128.90;6502.40
55331;DHT22;58851;42.984;20.336;2023-11-21T06:46:47;128.90;6502.40
55331;DHT22;58851;42.984;20.336;2023-11-21T06:49:14;153.60;6502.40
55331;DHT22;58851;42.984;20.336;2023-11-21T06:51:39;153.60;6502.40
55331;DHT22;58851;42.984;20.336;2023-11-21T06:54:06;153.60;6502.40
55331;DHT22;58851;42.984;20.336;2023-11-21T06:56:31;153.60;6502.40
55331;DHT22;58851;42.984;20.336;2023-11-21T06:58:58;153.70;6502.40
55331;DHT22;58851;42.984;20.336;2023-11-21T07:01:23;153.70;6502.40
55331;DHT22;58851;42.984;20.336;2023-11-21T07:03:54;153.70;6502.40
55331;DHT22;58851;42.984;20.336;2023-11-21T07:06:20;153.80;6502.40
55331;DHT22;58851;42.984;20.336;2023-11-21T07:08:46;128.90;6502.40
55331;DHT22;58851;42.984;20.336;2023-11-21T07:11:12;128.90;6502.40
55331;DHT22;58851;42.984;20.336;2023-11-21T07:13:38;128.80;6502.40
55331;DHT22;58851;42.984;20.336;2023-11-21T07:16:04;128.80;6502.40
55331;DHT22;58851;42.984;20.336;2023-11-21T07:18:30;153.60;6502.40
55331;DHT22;58851;42.984;20.336;2023-11-21T07:20:56;128.90;6502.40
55331;DHT22;58851;42.984;20.336;2023-11-21T07:23:22;153.70;6502.40
55331;DHT22;58851;42.984;20.336;2023-11-21T07:25:48;153.80;6502.40
55331;DHT22;58851;42.984;20.336;2023-11-21T07:28:14;153.80;6502.40
55331;DHT22;58851;42.984;20.336;2023-11-21T07:30:41;153.90;6502.40
55331;DHT22;58851;42.984;20.336;2023-11-21T07:33:07;153.80;6502.40
55331;DHT22;58851;42.984;20.336;2023-11-21T07:35:33;153.90;6502.40
55331;DHT22;58851;42.984;20.336;2023-11-21T07:37:59;154.00;6502.40
55331;DHT22;58851;42.984;20.336;2023-11-21T07:40:25;154.10;6502.40
55331;DHT22;58851;42.984;20.336;2023-11-21T07:42:52;154.20;6502.40
55331;DHT22;58851;42.984;20.336;2023-11-21T07:45:17;154.30;6502.40
55331;DHT22;58851;42.984;20.336;2023-11-21T07:47:43;154.40;6502.40
55331;DHT22;58851;42.984;20.336;2023-11-21T07:50:09;154.40;6502.40
55331;DHT22;58851;42.984;20.336;2023-11-21T07:52:35;154.50;6502.40
55331;DHT22;58851;42.984;20.336;2023-11-21T07:55:01;154.40;6502.40
55331;DHT22;58851;42.984;20.336;2023-11-21T07:57:27;154.40;6502.40
55331;DHT22;58851;42.984;20.336;2023-11-21T07:59:53;154.40;6502.40
55331;DHT22;58851;42.984;20.336;2023-11-21T08:02:21;154.50;6502.40
55331;DHT22;58851;42.984;20.336;2023-11-21T08:04:47;154.40;6502.40
55331;DHT22;58851;42.984;20.336;2023-11-21T08:07:16;154.50;6502.40
55331;DHT22;58851;42.984;20.336;2023-11-21T08:09:42;179.20;6502.40
55331;DHT22;58851;42.984;20.336;2023-11-21T08:12:10;179.30;6502.40
55331;DHT22;58851;42.984;20.336;2023-11-21T08:14:36;179.30;6502.40
55331;DHT22;58851;42.984;20.336;2023-11-21T08:17:04;179.30;6502.40
55331;DHT22;58851;42.984;20.336;2023-11-21T08:19:30;179.40;6502.40
55331;DHT22;58851;42.984;20.336;2023-11-21T08:21:56;179.50;6502.40
55331;DHT22;58851;42.984;20.336;2023-11-21T08:24:22;179.50;6502.40
55331;DHT22;58851;42.984;20.336;2023-11-21T08:26:48;179.50;6502.40
55331;DHT22;58851;42.984;20.336;2023-11-21T08:29:13;179.50;6502.40
55331;DHT22;58851;42.984;20.336;2023-11-21T08:31:39;179.60;6502.40
55331;DHT22;58851;42.984;20.336;2023-11-21T08:34:06;179.50;6502.40
55331;DHT22;58851;42.984;20.336;2023-11-21T08:36:32;179.60;6502.40
55331;DHT22;58851;42.984;20.336;2023-11-21T08:38:58;179.70;6502.40
55331;DHT22;58851;42.984;20.336;2023-11-21T08:41:24;179.70;6502.40
55331;DHT22;58851;42.984;20.336;2023-11-21T08:43:50;179.70;6502.40
55331;DHT22;58851;42.984;20.336;2023-11-21T08:46:16;179.80;6502.40
55331;DHT22;58851;42.984;20.336;2023-11-21T08:48:45;179.80;6502.40
55331;DHT22;58851;42.984;20.336;2023-11-21T08:51:11;179.90;6502.40
55331;DHT22;58851;42.984;20.336;2023-11-21T08:53:38;180.00;6502.40
55331;DHT22;58851;42.984;20.336;2023-11-21T08:56:04;180.00;6502.40
55331;DHT22;58851;42.984;20.336;2023-11-21T08:58:31;180.10;6502.40
55331;DHT22;58851;42.984;20.336;2023-11-21T09:00:57;180.10;6502.40
55331;DHT22;58851;42.984;20.336;2023-11-21T09:03:23;179.90;6502.40
55331;DHT22;58851;42.984;20.336;2023-11-21T09:05:50;179.70;6502.40
55331;DHT22;58851;42.984;20.336;2023-11-21T09:08:15;179.70;6502.40
55331;DHT22;58851;42.984;20.336;2023-11-21T09:10:41;179.80;6502.40
55331;DHT22;58851;42.984;20.336;2023-11-21T09:13:09;179.80;6502.40
55331;DHT22;58851;42.984;20.336;2023-11-21T09:15:35;179.70;6502.40
55331;DHT22;58851;42.984;20.336;2023-11-21T09:18:02;179.80;6502.40
55331;DHT22;58851;42.984;20.336;2023-11-21T09:20:27;179.70;6502.40
55331;DHT22;58851;42.984;20.336;2023-11-21T09:22:54;179.70;6502.40
55331;DHT22;58851;42.984;20.336;2023-11-21T09:25:21;179.90;6502.40
55331;DHT22;58851;42.984;20.336;2023-11-21T09:27:46;180.00;6502.40
55331;DHT22;58851;42.984;20.336;2023-11-21T09:30:12;180.00;6502.40
55331;DHT22;58851;42.984;20.336;2023-11-21T09:32:40;180.10;6502.40
55331;DHT22;58851;42.984;20.336;2023-11-21T09:35:06;180.10;6502.40
55331;DHT22;58851;42.984;20.336;2023-11-21T09:37:35;204.80;6502.40
55331;DHT22;58851;42.984;20.336;2023-11-21T09:40:04;204.80;6502.40
55331;DHT22;58851;42.984;20.336;2023-11-21T09:42:37;204.80;6502.40
55331;DHT22;58851;42.984;20.336;2023-11-21T09:45:26;204.90;6502.40
55331;DHT22;58851;42.984;20.336;2023-11-21T09:47:56;204.80;6502.40
55331;DHT22;58851;42.984;20.336;2023-11-21T09:50:23;204.90;6502.40
55331;DHT22;58851;42.984;20.336;2023-11-21T09:53:14;204.80;6502.40
55331;DHT22;58851;42.984;20.336;2023-11-21T09:55:46;180.10;6502.40
55331;DHT22;58851;42.984;20.336;2023-11-21T09:58:14;204.90;6502.40
55331;DHT22;58851;42.984;20.336;2023-11-21T10:00:47;205.00;6502.40
55331;DHT22;58851;42.984;20.336;2023-11-21T10:03:14;205.10;6502.40
55331;DHT22;58851;42.984;20.336;2023-11-21T10:05:43;205.30;6502.40
55331;DHT22;58851;42.984;20.336;2023-11-21T10:08:11;205.30;6502.40
55331;DHT22;58851;42.984;20.336;2023-11-21T10:10:41;205.40;6502.40
55331;DHT22;58851;42.984;20.336;2023-11-21T10:13:11;205.40;6502.40
55331;DHT22;58851;42.984;20.336;2023-11-21T10:15:38;205.50;6502.40
55331;DHT22;58851;42.984;20.336;2023-11-21T10:18:05;205.60;6502.40
55331;DHT22;58851;42.984;20.336;2023-11-21T10:20:33;205.60;6502.40
55331;DHT22;58851;42.984;20.336;2023-11-21T10:23:00;205.50;6502.40
55331;DHT22;58851;42.984;20.336;2023-11-21T10:25:27;205.50;6502.40
55331;DHT22;58851;42.984;20.336;2023-11-21T10:28:02;205.50;6502.40
55331;DHT22;58851;42.984;20.336;2023-11-21T10:30:34;205.40;6502.40
55331;DHT22;58851;42.984;20.336;2023-11-21T10:33:07;205.60;6502.40
55331;DHT22;58851;42.984;20.336;2023-11-21T10:35:44;205.70;6502.40
55331;DHT22;58851;42.984;20.336;2023-11-21T10:38:19;230.40;6502.40
55331;DHT22;58851;42.984;20.336;2023-11-21T10:40:46;230.50;6502.40
55331;DHT22;58851;42.984;20.336;2023-11-21T10:43:13;230.60;6502.40
55331;DHT22;58851;42.984;20.336;2023-11-21T10:45:41;230.70;6502.40
55331;DHT22;58851;42.984;20.336;2023-11-21T10:48:14;230.70;6502.40
55331;DHT22;58851;42.984;20.336;2023-11-21T10:50:46;230.80;6502.40
55331;DHT22;58851;42.984;20.336;2023-11-21T10:53:13;230.80;6502.40
55331;DHT22;58851;42.984;20.336;2023-11-21T10:55:39;230.90;6502.40
55331;DHT22;58851;42.984;20.336;2023-11-21T10:58:05;231.00;6502.40
55331;DHT22;58851;42.984;20.336;2023-11-21T11:00:33;231.00;6502.40
55331;DHT22;58851;42.984;20.336;2023-11-21T11:03:00;231.20;6502.40
55331;DHT22;58851;42.984;20.336;2023-11-21T11:05:28;231.20;6502.40
55331;DHT22;58851;42.984;20.336;2023-11-21T11:08:01;231.20;6502.40
55331;DHT22;58851;42.984;20.336;2023-11-21T11:10:29;256.00;6502.40
55331;DHT22;58851;42.984;20.336;2023-11-21T11:12:56;256.00;6502.40
55331;DHT22;58851;42.984;20.336;2023-11-21T11:15:25;256.00;6502.40
55331;DHT22;58851;42.984;20.336;2023-11-21T11:17:52;256.20;6502.40
55331;DHT22;58851;42.984;20.336;2023-11-21T11:20:29;256.30;6502.40
55331;DHT22;58851;42.984;20.336;2023-11-21T11:26:19;256.30;6502.40
55331;DHT22;58851;42.984;20.336;2023-11-21T11:32:12;256.50;6502.40
55331;DHT22;58851;42.984;20.336;2023-11-21T11:34:50;256.60;6502.40
55331;DHT22;58851;42.984;20.336;2023-11-21T11:37:20;256.70;6502.40
55331;DHT22;58851;42.984;20.336;2023-11-21T11:39:46;256.80;6502.40
55331;DHT22;58851;42.984;20.336;2023-11-21T11:42:15;256.80;6502.40
55331;DHT22;58851;42.984;20.336;2023-11-21T11:47:29;256.90;6502.40
55331;DHT22;58851;42.984;20.336;2023-11-21T11:50:11;256.80;6502.40
55331;DHT22;58851;42.984;20.336;2023-11-21T11:52:50;256.80;6502.40
55331;DHT22;58851;42.984;20.336;2023-11-21T11:55:18;256.80;6502.40
55331;DHT22;58851;42.984;20.336;2023-11-21T12:00:20;256.80;6502.40
55331;DHT22;58851;42.984;20.336;2023-11-21T12:02:48;256.60;6502.40
55331;DHT22;58851;42.984;20.336;2023-11-21T12:05:21;256.60;6502.40
55331;DHT22;58851;42.984;20.336;2023-11-21T12:07:49;256.70;6502.40
55331;DHT22;58851;42.984;20.336;2023-11-21T12:10:19;256.70;6502.40
55331;DHT22;58851;42.984;20.336;2023-11-21T12:12:49;256.60;6502.40
55331;DHT22;58851;42.984;20.336;2023-11-21T12:15:16;256.60;6502.40
55331;DHT22;58851;42.984;20.336;2023-11-21T12:17:43;256.60;6502.40
55331;DHT22;58851;42.984;20.336;2023-11-21T12:20:11;256.60;6502.40
55331;DHT22;58851;42.984;20.336;2023-11-21T12:22:47;256.50;6502.40
55331;DHT22;58851;42.984;20.336;2023-11-21T12:25:16;256.70;6502.40
55331;DHT22;58851;42.984;20.336;2023-11-21T12:27:49;256.80;6502.40
55331;DHT22;58851;42.984;20.336;2023-11-21T12:30:17;256.90;6502.40
55331;DHT22;58851;42.984;20.336;2023-11-21T12:32:47;281.60;6528.00
55331;DHT22;58851;42.984;20.336;2023-11-21T12:35:14;281.60;6528.00
55331;DHT22;58851;42.984;20.336;2023-11-21T12:37:45;281.60;6528.00
55331;DHT22;58851;42.984;20.336;2023-11-21T12:40:13;281.60;6528.00
55331;DHT22;58851;42.984;20.336;2023-11-21T12:42:45;281.60;6528.00
55331;DHT22;58851;42.984;20.336;2023-11-21T12:47:47;281.60;6528.00
55331;DHT22;58851;42.984;20.336;2023-11-21T12:50:21;281.60;6528.00
55331;DHT22;58851;42.984;20.336;2023-11-21T12:52:50;281.60;6528.00
55331;DHT22;58851;42.984;20.336;2023-11-21T12:55:17;256.90;6502.40
55331;DHT22;58851;42.984;20.336;2023-11-21T12:57:45;256.80;6502.40
55331;DHT22;58851;42.984;20.336;2023-11-21T13:00:13;256.80;6502.40
55331;DHT22;58851;42.984;20.336;2023-11-21T13:02:51;256.70;6502.40
55331;DHT22;58851;42.984;20.336;2023-11-21T13:05:36;256.70;6502.40
55331;DHT22;58851;42.984;20.336;2023-11-21T13:08:08;256.80;6502.40
55331;DHT22;58851;42.984;20.336;2023-11-21T13:10:39;256.80;6502.40
55331;DHT22;58851;42.984;20.336;2023-11-21T13:13:08;256.80;6502.40
55331;DHT22;58851;42.984;20.336;2023-11-21T13:15:34;256.80;6502.40
55331;DHT22;58851;42.984;20.336;2023-11-21T13:18:02;256.80;6502.40
55331;DHT22;58851;42.984;20.336;2023-11-21T13:20:29;256.80;6502.40
55331;DHT22;58851;42.984;20.336;2023-11-21T13:22:57;256.80;6502.40
55331;DHT22;58851;42.984;20.336;2023-11-21T13:25:33;256.70;6502.40
55331;DHT22;58851;42.984;20.336;2023-11-21T13:28:00;256.70;6502.40
55331;DHT22;58851;42.984;20.336;2023-11-21T13:30:27;256.60;6502.40
55331;DHT22;58851;42.984;20.336;2023-11-21T13:32:59;256.60;6502.40
55331;DHT22;58851;42.984;20.336;2023-11-21T13:35:31;256.50;6502.40
55331;DHT22;58851;42.984;20.336;2023-11-21T13:38:24;256.50;6502.40
55331;DHT22;58851;42.984;20.336;2023-11-21T13:40:55;256.60;6502.40
55331;DHT22;58851;42.984;20.336;2023-11-21T13:43:24;256.40;6502.40
55331;DHT22;58851;42.984;20.336;2023-11-21T13:45:54;256.40;6502.40
55331;DHT22;58851;42.984;20.336;2023-11-21T13:48:29;256.30;6502.40
55331;DHT22;58851;42.984;20.336;2023-11-21T13:51:06;256.30;6502.40
55331;DHT22;58851;42.984;20.336;2023-11-21T13:53:46;256.40;6502.40
55331;DHT22;58851;42.984;20.336;2023-11-21T13:56:16;256.50;6502.40
55331;DHT22;58851;42.984;20.336;2023-11-21T13:58:53;256.50;6502.40
55331;DHT22;58851;42.984;20.336;2023-11-21T14:01:22;256.40;6502.40
55331;DHT22;58851;42.984;20.336;2023-11-21T14:03:58;256.40;6502.40
55331;DHT22;58851;42.984;20.336;2023-11-21T14:06:47;256.40;6502.40
55331;DHT22;58851;42.984;20.336;2023-11-21T14:09:15;256.30;6502.40
55331;DHT22;58851;42.984;20.336;2023-11-21T14:11:52;256.40;6502.40
55331;DHT22;58851;42.984;20.336;2023-11-21T14:14:26;256.40;6502.40
55331;DHT22;58851;42.984;20.336;2023-11-21T14:16:53;256.40;6502.40
55331;DHT22;58851;42.984;20.336;2023-11-21T14:19:20;256.30;6502.40
55331;DHT22;58851;42.984;20.336;2023-11-21T14:21:47;256.30;6502.40
55331;DHT22;58851;42.984;20.336;2023-11-21T14:24:16;256.20;6502.40
55331;DHT22;58851;42.984;20.336;2023-11-21T14:26:45;256.10;6502.40
55331;DHT22;58851;42.984;20.336;2023-11-21T14:29:12;256.10;6502.40
55331;DHT22;58851;42.984;20.336;2023-11-21T14:31:43;256.00;6502.40
55331;DHT22;58851;42.984;20.336;2023-11-21T14:34:09;256.00;6502.40
55331;DHT22;58851;42.984;20.336;2023-11-21T14:36:36;256.00;6502.40
55331;DHT22;58851;42.984;20.336;2023-11-21T14:39:03;256.00;6502.40
55331;DHT22;58851;42.984;20.336;2023-11-21T14:41:32;231.30;6502.40
55331;DHT22;58851;42.984;20.336;2023-11-21T14:44:01;231.30;6502.40
55331;DHT22;58851;42.984;20.336;2023-11-21T14:46:28;231.00;6502.40
55331;DHT22;58851;42.984;20.336;2023-11-21T14:48:54;230.90;6502.40
55331;DHT22;58851;42.984;20.336;2023-11-21T14:51:28;230.90;6502.40
55331;DHT22;58851;42.984;20.336;2023-11-21T14:53:58;230.90;6502.40